Pagina principale
METAR-TAF:

METAR-TAF

Aeroporti :

Messina, Italia

latitudine: 38-12N, longitudine: 015-33E, altezza: 59 m

Osservazione

Il bollettino è stato emesso 28 minuti fa, alle 10:55 UTC
Vento 7 kt da nord-est con raffiche fino a 20 kt
Temperature 19°C
Umidità 83%
Pressione 1015 hPa
Visibilità 10 km o più
Poco nuvoloso ad un'altezza di 1000 ft
Nubi sparse ad un'altezza di 2500 ft

METAR: LICF 261055Z 04007G20KT 9999 FEW010 SCT025 19/16 Q1015 RMK BKN BKN080 QUK 2 QUL 0 VIS MAR 15 KM MON INC NC VIS MIN 9999

Ora: 13:23 (11:23 UTC)


TAF: mancante

Osservazioni e previsioni meteorologiche di più di 4000 aeroporti (messaggi METAR e TAF).

Le stazioni disponibili sono rappresentate dai dischi gialli e rossi sulla carta.

Puntare il mouse per vedere il nome della stazione.

Clicca sopra per visualizzare le osservazioni e previsioni meteorologiche.

Per cambiare la mappa : fare clic sui pulsanti verdi con una croce nera per ingrandire, il pulsante verde con un trattino per diminuire, o sulla freccia verde per le mappe adiacenti.


METAR-TAF: